createdAt,value
2024-01-17T00:01:47.191Z,60.80
2024-01-17T00:04:16.487Z,60.80
2024-01-17T00:06:44.781Z,60.70
2024-01-17T00:09:16.187Z,60.60
2024-01-17T00:11:44.661Z,60.50
2024-01-17T00:14:13.353Z,60.60
2024-01-17T00:16:41.732Z,60.60
2024-01-17T00:19:10.164Z,60.50
2024-01-17T00:21:38.637Z,60.60
2024-01-17T00:24:07.031Z,60.60
2024-01-17T00:26:36.617Z,60.50
2024-01-17T00:29:04.761Z,60.50
2024-01-17T00:31:33.576Z,60.40
2024-01-17T00:34:02.737Z,60.40
2024-01-17T00:36:31.051Z,61.10
2024-01-17T00:38:59.279Z,60.20
2024-01-17T00:41:28.009Z,60.00
2024-01-17T00:43:57.880Z,59.90
2024-01-17T00:46:26.077Z,59.80
2024-01-17T00:48:54.666Z,59.80
2024-01-17T00:51:26.699Z,59.90
2024-01-17T00:53:55.433Z,59.90
2024-01-17T00:56:23.742Z,59.90
2024-01-17T00:58:51.967Z,59.90
2024-01-17T01:01:21.855Z,60.00
2024-01-17T01:03:50.177Z,60.10
2024-01-17T01:06:18.324Z,60.20
2024-01-17T01:08:46.548Z,60.30
2024-01-17T01:11:14.863Z,60.10
2024-01-17T01:13:43.498Z,60.20
2024-01-17T01:16:11.724Z,60.00
2024-01-17T01:18:41.536Z,59.90
2024-01-17T01:21:09.940Z,59.90
2024-01-17T01:23:38.179Z,59.90
2024-01-17T01:26:06.429Z,59.80
2024-01-17T01:28:34.714Z,59.90
2024-01-17T01:31:03.199Z,59.80
2024-01-17T01:33:31.522Z,59.60
2024-01-17T01:36:01.221Z,59.30
2024-01-17T01:38:29.624Z,59.50
2024-01-17T01:40:59.999Z,59.20
2024-01-17T01:43:28.611Z,59.20
2024-01-17T01:46:16.481Z,58.80
2024-01-17T01:48:45.562Z,59.10
2024-01-17T01:51:16.635Z,59.00
2024-01-17T01:53:46.774Z,59.00
2024-01-17T01:56:18.039Z,59.40
2024-01-17T01:58:50.195Z,59.00
2024-01-17T02:01:20.048Z,59.00
2024-01-17T02:03:50.401Z,59.00
2024-01-17T02:06:20.882Z,58.90
2024-01-17T02:08:49.280Z,58.90
2024-01-17T02:11:18.259Z,58.80
2024-01-17T02:13:46.571Z,58.90
2024-01-17T02:16:16.481Z,58.80
2024-01-17T02:18:45.658Z,58.70
2024-01-17T02:21:14.158Z,58.70
2024-01-17T02:23:43.747Z,59.10
2024-01-17T02:26:13.521Z,58.50
2024-01-17T02:28:41.654Z,58.60
2024-01-17T02:31:10.223Z,58.70
2024-01-17T02:33:39.282Z,58.40
2024-01-17T02:36:07.872Z,58.50
2024-01-17T02:38:36.165Z,58.40
2024-01-17T02:41:04.432Z,58.30
2024-01-17T02:43:34.468Z,58.50
2024-01-17T02:46:02.763Z,58.40
2024-01-17T02:48:31.359Z,58.20
2024-01-17T02:50:59.613Z,58.40
2024-01-17T02:53:29.269Z,58.40
2024-01-17T02:55:57.616Z,58.40
2024-01-17T02:58:26.065Z,58.50
2024-01-17T03:00:55.710Z,58.50
2024-01-17T03:03:25.587Z,58.40
2024-01-17T03:05:55.589Z,58.30
2024-01-17T03:08:24.812Z,58.20
2024-01-17T03:10:53.139Z,58.30
2024-01-17T03:13:22.154Z,58.10
2024-01-17T03:15:50.873Z,58.20
2024-01-17T03:18:20.786Z,58.30
2024-01-17T03:20:49.846Z,58.40
2024-01-17T03:23:18.710Z,58.40
2024-01-17T03:25:47.238Z,58.40
2024-01-17T03:28:15.851Z,58.40
2024-01-17T03:30:45.090Z,58.10
2024-01-17T03:33:13.604Z,58.10
2024-01-17T03:35:44.380Z,57.90
2024-01-17T03:38:13.111Z,57.80
2024-01-17T03:40:41.838Z,58.80
2024-01-17T03:43:10.633Z,57.90
2024-01-17T03:45:39.390Z,57.80
2024-01-17T03:48:09.145Z,57.80
2024-01-17T03:50:37.968Z,57.90
2024-01-17T03:53:08.357Z,57.90
2024-01-17T03:55:37.063Z,57.80
2024-01-17T03:58:05.861Z,57.80
2024-01-17T04:00:34.232Z,57.60
2024-01-17T04:03:02.695Z,57.60
2024-01-17T04:05:54.053Z,57.60
2024-01-17T04:08:25.166Z,57.50
2024-01-17T04:10:53.583Z,57.50
2024-01-17T04:13:23.409Z,57.20
2024-01-17T04:15:51.868Z,56.70
2024-01-17T04:18:20.607Z,57.40
2024-01-17T04:20:49.016Z,57.00
2024-01-17T04:23:17.505Z,57.10
2024-01-17T04:25:47.395Z,57.10
2024-01-17T04:28:15.796Z,57.00
2024-01-17T04:30:45.673Z,57.30
2024-01-17T04:33:14.292Z,57.30
2024-01-17T04:35:42.631Z,57.60
2024-01-17T04:38:10.841Z,57.30
2024-01-17T04:40:39.199Z,57.20
2024-01-17T04:43:08.968Z,57.00
2024-01-17T04:45:37.522Z,57.10
2024-01-17T04:48:09.225Z,57.20
2024-01-17T04:50:38.056Z,57.10
2024-01-17T04:53:06.366Z,57.10
2024-01-17T04:55:37.125Z,57.00
2024-01-17T04:58:05.654Z,57.10
2024-01-17T05:00:35.293Z,57.10
2024-01-17T05:03:03.585Z,56.90
2024-01-17T05:05:31.878Z,56.70
2024-01-17T05:08:00.160Z,56.90
2024-01-17T05:10:28.425Z,56.50
2024-01-17T05:12:56.625Z,56.90
2024-01-17T05:15:26.291Z,57.00
2024-01-17T05:17:56.012Z,57.00
2024-01-17T05:20:24.381Z,57.60
2024-01-17T05:22:52.637Z,57.10
2024-01-17T05:25:20.940Z,56.70
2024-01-17T05:27:53.130Z,56.70
2024-01-17T05:30:21.729Z,56.70
2024-01-17T05:32:50.164Z,57.40
2024-01-17T05:35:20.179Z,56.60
2024-01-17T05:37:48.955Z,56.50
2024-01-17T05:40:17.448Z,56.60
2024-01-17T05:42:47.835Z,56.60
2024-01-17T05:45:16.043Z,56.60
2024-01-17T05:47:44.528Z,56.70
2024-01-17T05:50:13.785Z,56.60
2024-01-17T05:52:44.776Z,57.20
2024-01-17T05:55:14.617Z,56.70
2024-01-17T05:57:43.124Z,56.40
2024-01-17T06:00:13.734Z,56.90
2024-01-17T06:02:43.994Z,56.70
2024-01-17T06:05:12.937Z,56.70
2024-01-17T06:07:41.862Z,56.50
2024-01-17T06:10:14.505Z,57.10
2024-01-17T06:12:43.490Z,56.50
2024-01-17T06:15:13.967Z,56.90
2024-01-17T06:17:46.608Z,56.30
2024-01-17T06:20:15.269Z,56.20
2024-01-17T06:22:43.503Z,56.20
2024-01-17T06:25:33.463Z,56.40
2024-01-17T06:28:04.399Z,56.60
2024-01-17T06:30:32.901Z,56.80
2024-01-17T06:33:01.614Z,56.70
2024-01-17T06:35:30.370Z,56.60
2024-01-17T06:37:58.608Z,56.50
2024-01-17T06:40:28.449Z,56.40
2024-01-17T06:42:56.993Z,56.30
2024-01-17T06:45:26.646Z,56.30
2024-01-17T06:47:55.410Z,56.20
2024-01-17T06:50:24.058Z,56.20
2024-01-17T06:52:52.322Z,56.30
2024-01-17T06:55:20.966Z,56.20
2024-01-17T06:57:50.694Z,56.20
2024-01-17T07:00:19.607Z,56.10
2024-01-17T07:02:48.700Z,56.10
2024-01-17T07:05:18.302Z,56.10
2024-01-17T07:07:46.797Z,56.10
2024-01-17T07:10:15.820Z,56.40
2024-01-17T07:12:44.135Z,56.10
2024-01-17T07:15:14.473Z,56.30
2024-01-17T07:17:42.892Z,56.10
2024-01-17T07:20:13.578Z,55.80
2024-01-17T07:22:43.445Z,56.00
2024-01-17T07:25:12.218Z,56.00
2024-01-17T07:27:41.876Z,55.90
2024-01-17T07:30:12.551Z,55.90
2024-01-17T07:32:43.140Z,56.00
2024-01-17T07:35:11.656Z,55.90
2024-01-17T07:37:39.839Z,55.70
2024-01-17T07:40:10.408Z,55.70
2024-01-17T07:42:38.990Z,55.40
2024-01-17T07:45:08.677Z,55.80
2024-01-17T07:47:36.972Z,55.80
2024-01-17T07:50:07.418Z,55.70
2024-01-17T07:52:35.597Z,55.50
2024-01-17T07:55:07.767Z,55.50
2024-01-17T07:57:36.875Z,55.50
2024-01-17T08:00:06.785Z,55.40
2024-01-17T08:02:40.486Z,55.30
2024-01-17T08:05:10.493Z,55.70
2024-01-17T08:07:38.714Z,55.70
2024-01-17T08:10:09.343Z,55.30
2024-01-17T08:12:38.040Z,55.00
2024-01-17T08:15:09.495Z,55.40
2024-01-17T08:17:38.832Z,55.60
2024-01-17T08:20:09.735Z,55.60
2024-01-17T08:22:38.042Z,55.30
2024-01-17T08:25:06.720Z,55.20
2024-01-17T08:27:34.853Z,55.10
2024-01-17T08:30:02.149Z,55.10
2024-01-17T08:32:30.662Z,55.20
2024-01-17T08:34:58.971Z,55.60
2024-01-17T08:37:28.955Z,55.60
2024-01-17T08:39:57.173Z,55.40
2024-01-17T08:42:25.363Z,55.30
2024-01-17T08:44:53.740Z,55.20
2024-01-17T08:47:22.099Z,55.10
2024-01-17T08:49:51.043Z,54.80
2024-01-17T08:52:19.339Z,54.20
2024-01-17T08:54:48.871Z,53.90
2024-01-17T08:57:17.188Z,53.80
2024-01-17T08:59:45.413Z,54.00
2024-01-17T09:02:13.924Z,54.40
2024-01-17T09:04:42.344Z,54.50
2024-01-17T09:07:10.726Z,54.10
2024-01-17T09:09:39.138Z,53.80
2024-01-17T09:12:09.305Z,53.60
2024-01-17T09:14:42.804Z,53.40
2024-01-17T09:17:11.109Z,53.40
2024-01-17T09:19:39.270Z,53.60
2024-01-17T09:22:08.447Z,53.10
2024-01-17T09:24:37.848Z,53.00
2024-01-17T09:27:06.612Z,52.80
2024-01-17T09:29:37.025Z,53.00
2024-01-17T09:32:06.045Z,53.20
2024-01-17T09:34:35.371Z,52.70
2024-01-17T09:37:04.175Z,52.30
2024-01-17T09:39:32.924Z,52.30
2024-01-17T09:42:01.793Z,53.00
2024-01-17T09:44:30.220Z,53.00
2024-01-17T09:47:00.982Z,52.90
2024-01-17T09:49:29.629Z,52.60
2024-01-17T09:51:58.111Z,52.40
2024-01-17T09:54:27.558Z,52.70
2024-01-17T09:56:58.436Z,52.80
2024-01-17T09:59:29.562Z,53.00
2024-01-17T10:01:59.372Z,52.80
2024-01-17T10:04:28.236Z,52.60
2024-01-17T10:06:57.619Z,52.30
2024-01-17T10:09:26.311Z,52.40
2024-01-17T10:11:55.624Z,52.20
2024-01-17T10:14:25.731Z,51.90
2024-01-17T10:16:54.101Z,52.10
2024-01-17T10:19:26.872Z,52.40
2024-01-17T10:21:55.469Z,52.40
2024-01-17T10:24:23.957Z,52.50
2024-01-17T10:26:53.071Z,52.70
2024-01-17T10:29:21.447Z,52.40
2024-01-17T10:31:49.627Z,52.20
2024-01-17T10:34:18.079Z,52.10
2024-01-17T10:36:48.018Z,52.30
2024-01-17T10:39:21.736Z,51.50
2024-01-17T10:41:55.701Z,51.30
2024-01-17T10:44:26.335Z,51.70
2024-01-17T10:46:55.362Z,52.40
2024-01-17T10:49:24.872Z,52.10
2024-01-17T10:52:03.159Z,52.40
2024-01-17T10:54:46.218Z,52.60
2024-01-17T10:57:17.315Z,52.90
2024-01-17T10:59:49.201Z,52.70
2024-01-17T11:02:20.931Z,52.80
2024-01-17T11:04:55.174Z,52.90
2024-01-17T11:07:26.040Z,52.90
2024-01-17T11:09:56.291Z,52.80
2024-01-17T11:12:25.462Z,52.90
2024-01-17T11:14:56.656Z,53.00
2024-01-17T11:17:32.637Z,53.30
2024-01-17T11:20:08.885Z,53.40
2024-01-17T11:22:40.431Z,53.30
2024-01-17T11:25:18.839Z,53.60
2024-01-17T11:27:55.743Z,53.70
2024-01-17T11:30:35.247Z,53.70
2024-01-17T11:33:08.910Z,53.90
2024-01-17T11:35:44.955Z,54.50
2024-01-17T11:38:16.303Z,53.80
2024-01-17T11:40:44.666Z,53.80
2024-01-17T11:43:13.009Z,53.90
2024-01-17T11:45:41.474Z,54.10
2024-01-17T11:48:21.035Z,54.10
2024-01-17T11:51:00.151Z,54.30
2024-01-17T11:53:31.467Z,54.50
2024-01-17T11:56:04.760Z,54.10
2024-01-17T11:58:43.741Z,54.30
2024-01-17T12:01:14.577Z,54.50
2024-01-17T12:03:44.276Z,54.90
2024-01-17T12:06:13.827Z,55.10
2024-01-17T12:08:44.280Z,55.00
2024-01-17T12:11:12.744Z,55.20
2024-01-17T12:13:41.176Z,55.10
2024-01-17T12:16:10.289Z,55.30
2024-01-17T12:18:38.867Z,55.20
2024-01-17T12:21:07.931Z,54.90
2024-01-17T12:23:37.599Z,54.80
2024-01-17T12:26:07.621Z,55.00
2024-01-17T12:28:36.006Z,54.80
2024-01-17T12:31:06.849Z,54.70
2024-01-17T12:33:37.431Z,54.90
2024-01-17T12:36:07.324Z,54.40
2024-01-17T12:38:37.487Z,54.70
2024-01-17T12:41:08.972Z,54.60
2024-01-17T12:43:39.051Z,54.60
2024-01-17T12:46:09.159Z,54.40
2024-01-17T12:48:38.153Z,54.20
2024-01-17T12:51:08.531Z,53.80
2024-01-17T12:53:41.522Z,54.00
2024-01-17T12:56:13.073Z,53.80
2024-01-17T12:58:41.537Z,53.70
2024-01-17T13:01:13.746Z,53.70
2024-01-17T13:03:43.577Z,54.00
2024-01-17T13:06:14.389Z,53.40
2024-01-17T13:08:43.764Z,53.50
2024-01-17T13:11:20.526Z,53.60
2024-01-17T13:13:49.813Z,53.60
2024-01-17T13:16:19.336Z,53.60
2024-01-17T13:18:58.675Z,53.90
2024-01-17T13:21:27.135Z,54.20
2024-01-17T13:23:55.521Z,54.20
2024-01-17T13:26:25.358Z,54.20
2024-01-17T13:28:55.903Z,54.10
2024-01-17T13:31:24.901Z,53.80
2024-01-17T13:33:53.663Z,54.00
2024-01-17T13:36:22.082Z,53.90
2024-01-17T13:38:50.546Z,54.00
2024-01-17T13:41:19.243Z,54.00
2024-01-17T13:43:49.163Z,54.10
2024-01-17T13:46:17.863Z,54.20
2024-01-17T13:48:48.067Z,54.10
2024-01-17T13:51:18.164Z,54.20
2024-01-17T13:53:54.373Z,54.10
2024-01-17T13:56:23.185Z,54.20
2024-01-17T13:58:52.731Z,54.30
2024-01-17T14:01:21.369Z,54.30
2024-01-17T14:03:49.656Z,54.30
2024-01-17T14:06:18.160Z,54.00
2024-01-17T14:08:46.674Z,54.10
2024-01-17T14:11:15.260Z,54.10
2024-01-17T14:13:44.652Z,54.10
2024-01-17T14:16:14.464Z,54.10
2024-01-17T14:18:44.294Z,54.10
2024-01-17T14:21:15.728Z,54.00
2024-01-17T14:23:45.541Z,53.80
2024-01-17T14:26:14.138Z,53.70
2024-01-17T14:28:42.859Z,54.10
2024-01-17T14:31:11.727Z,53.30
2024-01-17T14:33:41.537Z,53.40
2024-01-17T14:36:12.104Z,52.80
2024-01-17T14:38:40.442Z,53.00
2024-01-17T14:41:09.717Z,53.10
2024-01-17T14:43:39.164Z,53.40
2024-01-17T14:46:07.862Z,53.60
2024-01-17T14:48:36.385Z,53.80
2024-01-17T14:51:07.249Z,53.80
2024-01-17T14:53:35.601Z,53.80
2024-01-17T14:56:03.879Z,53.40
2024-01-17T14:58:32.591Z,53.40
2024-01-17T15:01:01.224Z,53.40
2024-01-17T15:03:29.822Z,53.10
2024-01-17T15:05:58.557Z,53.00
2024-01-17T15:08:31.481Z,53.10
2024-01-17T15:10:59.802Z,53.20
2024-01-17T15:13:28.018Z,53.10
2024-01-17T15:15:56.233Z,53.00
2024-01-17T15:18:25.057Z,53.10
2024-01-17T15:20:53.409Z,53.20
2024-01-17T15:23:21.713Z,53.30
2024-01-17T15:25:51.692Z,53.40
2024-01-17T15:28:22.177Z,53.20
2024-01-17T15:30:50.602Z,53.10
2024-01-17T15:33:21.389Z,53.10
2024-01-17T15:35:51.521Z,53.20
2024-01-17T15:38:20.161Z,53.20
2024-01-17T15:40:56.857Z,53.10
2024-01-17T15:43:26.949Z,53.20
2024-01-17T15:45:56.351Z,53.00
2024-01-17T15:48:25.993Z,53.00
2024-01-17T15:50:54.299Z,52.90
2024-01-17T15:53:22.578Z,52.50
2024-01-17T15:55:50.812Z,53.20
2024-01-17T15:58:19.297Z,53.00
2024-01-17T16:00:49.141Z,53.00
2024-01-17T16:03:17.632Z,53.10
2024-01-17T16:05:45.937Z,53.20
2024-01-17T16:08:14.500Z,53.20
2024-01-17T16:10:43.716Z,53.20
2024-01-17T16:13:13.344Z,53.10
2024-01-17T16:15:41.669Z,53.10
2024-01-17T16:18:11.590Z,53.00
2024-01-17T16:20:43.887Z,53.20
2024-01-17T16:23:12.272Z,53.10
2024-01-17T16:25:40.720Z,53.40
2024-01-17T16:28:09.936Z,53.10
2024-01-17T16:30:39.448Z,52.90
2024-01-17T16:33:09.050Z,53.00
2024-01-17T16:35:39.312Z,52.90
2024-01-17T16:38:07.595Z,53.00
2024-01-17T16:40:37.377Z,53.10
2024-01-17T16:43:05.898Z,53.80
2024-01-17T16:45:34.280Z,53.10
2024-01-17T16:48:02.844Z,53.00
2024-01-17T16:50:31.809Z,52.90
2024-01-17T16:53:01.662Z,52.90
2024-01-17T16:55:33.516Z,53.60
2024-01-17T16:58:02.144Z,53.00
2024-01-17T17:00:30.474Z,53.10
2024-01-17T17:02:58.902Z,53.20
2024-01-17T17:05:27.266Z,53.20
2024-01-17T17:07:55.752Z,53.20
2024-01-17T17:10:25.471Z,53.30
2024-01-17T17:12:53.969Z,53.20
2024-01-17T17:15:22.321Z,53.30
2024-01-17T17:17:50.742Z,53.20
2024-01-17T17:20:19.261Z,53.80
2024-01-17T17:22:47.440Z,53.40
2024-01-17T17:25:17.393Z,53.30
2024-01-17T17:27:47.687Z,53.30
2024-01-17T17:30:16.632Z,53.60
2024-01-17T17:32:46.123Z,53.50
2024-01-17T17:35:15.015Z,54.20
2024-01-17T17:37:43.276Z,53.60
2024-01-17T17:40:12.398Z,53.60
2024-01-17T17:42:40.681Z,53.60
2024-01-17T17:45:11.801Z,54.40
2024-01-17T17:47:40.526Z,53.80
2024-01-17T17:50:12.865Z,53.90
2024-01-17T17:52:41.299Z,53.90
2024-01-17T17:55:10.930Z,54.00
2024-01-17T17:57:39.427Z,54.00
2024-01-17T18:00:09.694Z,54.10
2024-01-17T18:02:39.759Z,54.10
2024-01-17T18:05:11.603Z,54.10
2024-01-17T18:07:40.672Z,54.10
2024-01-17T18:10:10.147Z,54.00
2024-01-17T18:12:38.613Z,54.00
2024-01-17T18:15:09.511Z,54.00
2024-01-17T18:17:39.260Z,54.00
2024-01-17T18:20:08.391Z,54.00
2024-01-17T18:22:36.766Z,54.10
2024-01-17T18:25:05.438Z,54.70
2024-01-17T18:27:33.661Z,54.10
2024-01-17T18:30:02.084Z,54.10
2024-01-17T18:32:30.492Z,54.00
2024-01-17T18:35:00.070Z,53.90
2024-01-17T18:37:28.452Z,54.00
2024-01-17T18:39:56.984Z,54.00
2024-01-17T18:42:25.306Z,54.20
2024-01-17T18:44:53.611Z,54.00
2024-01-17T18:47:21.832Z,54.10
2024-01-17T18:49:50.138Z,54.30
2024-01-17T18:52:21.319Z,54.30
2024-01-17T18:54:49.663Z,54.40
2024-01-17T18:57:18.699Z,54.30
2024-01-17T18:59:49.219Z,54.40
2024-01-17T19:02:18.320Z,54.30
2024-01-17T19:04:46.608Z,54.20
2024-01-17T19:07:25.438Z,54.30
2024-01-17T19:09:55.558Z,54.40
2024-01-17T19:12:24.375Z,54.70
2024-01-17T19:14:53.335Z,54.60
2024-01-17T19:17:28.752Z,54.60
2024-01-17T19:19:58.034Z,54.60
2024-01-17T19:22:26.628Z,54.60
2024-01-17T19:24:56.457Z,54.60
2024-01-17T19:27:25.079Z,54.20
2024-01-17T19:29:53.586Z,54.20
2024-01-17T19:32:21.952Z,54.20
2024-01-17T19:34:50.261Z,54.30
2024-01-17T19:37:18.862Z,54.30
2024-01-17T19:39:47.175Z,54.40
2024-01-17T19:42:16.844Z,54.30
2024-01-17T19:44:45.099Z,54.40
2024-01-17T19:47:13.554Z,54.40
2024-01-17T19:49:41.910Z,54.40
2024-01-17T19:52:11.818Z,54.30
2024-01-17T19:54:40.106Z,54.30
2024-01-17T19:57:08.314Z,54.30
2024-01-17T19:59:38.728Z,54.30
2024-01-17T20:02:07.806Z,54.30
2024-01-17T20:04:35.997Z,54.40
2024-01-17T20:07:04.760Z,54.50
2024-01-17T20:09:37.383Z,54.50
2024-01-17T20:12:06.360Z,54.50
2024-01-17T20:14:34.662Z,54.50
2024-01-17T20:17:05.703Z,54.50
2024-01-17T20:19:35.144Z,54.50
2024-01-17T20:22:04.110Z,54.50
2024-01-17T20:24:33.327Z,54.50
2024-01-17T20:27:02.006Z,54.40
2024-01-17T20:29:30.379Z,54.40
2024-01-17T20:31:59.106Z,54.40
2024-01-17T20:34:29.079Z,54.50
2024-01-17T20:37:01.629Z,54.60
2024-01-17T20:39:31.298Z,54.60
2024-01-17T20:42:00.524Z,54.60
2024-01-17T20:44:29.244Z,54.60
2024-01-17T20:46:57.710Z,54.40
2024-01-17T20:49:26.053Z,54.40
2024-01-17T20:51:56.624Z,54.30
2024-01-17T20:54:25.234Z,54.30
2024-01-17T20:56:53.671Z,54.20
2024-01-17T20:59:22.291Z,54.20
2024-01-17T21:01:52.061Z,54.20
2024-01-17T21:04:21.023Z,54.10
2024-01-17T21:06:50.513Z,54.10
2024-01-17T21:09:20.186Z,54.20
2024-01-17T21:11:48.543Z,54.20
2024-01-17T21:14:16.756Z,54.20
2024-01-17T21:16:45.700Z,54.30
2024-01-17T21:19:14.583Z,54.30
2024-01-17T21:21:43.273Z,54.30
2024-01-17T21:24:12.344Z,54.30
2024-01-17T21:26:44.447Z,54.30
2024-01-17T21:29:14.142Z,54.30
2024-01-17T21:31:44.018Z,54.30
2024-01-17T21:34:13.759Z,54.20
2024-01-17T21:36:42.279Z,54.30
2024-01-17T21:39:11.955Z,54.30
2024-01-17T21:41:41.660Z,54.30
2024-01-17T21:44:10.495Z,54.30
2024-01-17T21:46:41.441Z,54.20
2024-01-17T21:49:10.220Z,54.20
2024-01-17T21:51:39.620Z,54.20
2024-01-17T21:54:08.371Z,54.40
2024-01-17T21:56:36.613Z,54.20
2024-01-17T21:59:06.515Z,54.80
2024-01-17T22:01:36.475Z,54.40
2024-01-17T22:04:05.960Z,54.50
2024-01-17T22:06:35.065Z,54.50
2024-01-17T22:09:06.108Z,54.80
2024-01-17T22:11:34.634Z,54.60
2024-01-17T22:14:03.341Z,54.70
2024-01-17T22:16:34.793Z,54.70
2024-01-17T22:19:03.582Z,54.80
2024-01-17T22:21:32.200Z,54.90
2024-01-17T22:24:00.873Z,55.00
2024-01-17T22:26:29.399Z,54.90
2024-01-17T22:28:57.870Z,54.70
2024-01-17T22:31:26.776Z,54.70
2024-01-17T22:33:56.492Z,54.70
2024-01-17T22:36:25.618Z,54.70
2024-01-17T22:38:54.532Z,54.90
2024-01-17T22:41:23.460Z,55.00
2024-01-17T22:43:52.068Z,55.00
2024-01-17T22:46:21.407Z,55.10
2024-01-17T22:48:50.447Z,55.10
2024-01-17T22:51:20.252Z,55.20
2024-01-17T22:53:49.680Z,55.00
2024-01-17T22:56:18.131Z,55.00
2024-01-17T22:58:46.315Z,55.10
2024-01-17T23:01:14.905Z,55.10
2024-01-17T23:03:45.738Z,55.00
2024-01-17T23:06:21.786Z,54.80
2024-01-17T23:08:52.665Z,54.70
2024-01-17T23:11:24.959Z,54.70
2024-01-17T23:13:55.765Z,54.70
2024-01-17T23:16:25.056Z,54.70
2024-01-17T23:18:53.840Z,54.60
2024-01-17T23:21:24.662Z,54.70
2024-01-17T23:23:53.009Z,54.90
2024-01-17T23:26:21.267Z,54.80
2024-01-17T23:28:49.531Z,54.80
2024-01-17T23:31:20.146Z,55.00
2024-01-17T23:33:48.941Z,54.80
2024-01-17T23:36:17.698Z,54.90
2024-01-17T23:38:47.265Z,55.10
2024-01-17T23:41:15.550Z,55.10
2024-01-17T23:43:43.788Z,55.10
2024-01-17T23:46:12.295Z,55.10
2024-01-17T23:48:41.536Z,55.10
2024-01-17T23:51:10.160Z,55.00
2024-01-17T23:53:38.688Z,55.00
2024-01-17T23:56:08.311Z,55.10
2024-01-17T23:58:36.870Z,55.10
